Time;durP1;ratioP1;P1;durP2;ratioP2;P2;SDS_P1;SDS_P2;PMS_P1;PMS_P2;Temp;Humidity;BMP_temperature;BMP_pressure;BME280_temperature;BME280_humidity;BME280_pressure;Samples;Min_cycle;Max_cycle;Signal;HPM_P1;HPM_P2
2023/11/09 00:02:20;;;;;;;;;;;5.40;58.30;;;0.33;100.00;95194.50;5012097;28;19967;-47
2023/11/09 00:04:46;;;;;;;;;;;5.30;58.30;;;0.37;100.00;95192.25;5011900;28;19913;-47
2023/11/09 00:07:12;;;;;;;;;;;5.30;58.30;;;0.33;100.00;95183.22;5008992;28;19909;-47
2023/11/09 00:09:37;;;;;;;;;;;5.30;58.30;;;0.34;100.00;95177.75;5012062;28;19913;-47
2023/11/09 00:12:04;;;;;;;;;;;5.30;58.40;;;0.33;100.00;95180.59;5011527;28;19955;-48
2023/11/09 00:14:30;;;;;;;;;;;5.30;58.40;;;0.26;100.00;95170.16;5012605;28;19913;-47
2023/11/09 00:16:56;;;;;;;;;;;5.20;58.40;;;0.23;100.00;95166.13;5012458;28;19909;-51
2023/11/09 00:19:22;;;;;;;;;;;5.20;58.40;;;0.35;100.00;95174.13;5007569;28;19964;-47
2023/11/09 00:21:47;;;;;;;;;;;5.20;58.50;;;0.42;100.00;95159.16;5012300;28;19962;-47
2023/11/09 00:24:13;;;;;;;;;;;5.20;58.60;;;0.57;100.00;95152.84;5011465;28;19909;-48
2023/11/09 00:26:45;;;;;;;;;;;5.30;58.80;;;0.63;100.00;95159.84;5012168;28;20371;-49
2023/11/09 00:29:12;;;;;;;;;;;5.30;58.80;;;0.66;100.00;95157.59;5012365;28;19913;-49
2023/11/09 00:31:38;;;;;;;;;;;5.30;58.80;;;0.67;100.00;95151.34;4987308;28;19916;-47
2023/11/09 00:34:04;;;;;;;;;;;5.40;58.80;;;0.64;100.00;95150.97;5007807;28;20307;-46
2023/11/09 00:36:32;;;;;;;;;;;5.40;58.70;;;0.58;100.00;95142.13;5011443;28;19920;-47
2023/11/09 00:38:57;;;;;;;;;;;5.40;58.60;;;0.61;100.00;95148.78;5011810;28;19959;-47
2023/11/09 00:41:23;;;;;;;;;;;5.40;58.60;;;0.71;100.00;95149.09;5011345;28;20000;-46
2023/11/09 00:43:53;;;;;;;;;;;5.50;58.70;;;0.79;100.00;95150.66;5011502;28;19909;-52
2023/11/09 00:46:19;;;;;;;;;;;5.50;58.70;;;0.82;100.00;95153.66;5011381;28;19999;-46
2023/11/09 00:48:46;;;;;;;;;;;5.60;58.80;;;0.83;100.00;95144.75;5011433;28;19913;-47
2023/11/09 00:51:12;;;;;;;;;;;5.60;58.70;;;0.84;100.00;95146.34;5003621;28;19909;-46
2023/11/09 00:53:38;;;;;;;;;;;5.60;58.70;;;0.83;100.00;95147.38;4990249;28;19914;-49
2023/11/09 00:56:06;;;;;;;;;;;5.60;58.60;;;0.83;100.00;95139.53;5008573;28;19916;-48
2023/11/09 00:58:32;;;;;;;;;;;5.70;58.70;;;0.90;100.00;95145.50;5011856;28;19909;-47
2023/11/09 01:00:58;;;;;;;;;;;5.70;58.70;;;1.03;100.00;95133.28;5010593;28;20434;-51
2023/11/09 01:03:24;;;;;;;;;;;5.70;58.80;;;1.10;100.00;95137.47;5011282;28;19945;-47
2023/11/09 01:05:53;;;;;;;;;;;5.80;58.80;;;1.10;100.00;95140.09;5010495;28;20399;-49
2023/11/09 01:08:18;;;;;;;;;;;5.80;58.70;;;1.03;100.00;95133.28;5011094;28;19917;-47
2023/11/09 01:10:44;;;;;;;;;;;5.80;58.60;;;0.98;100.00;95120.84;5006707;28;19910;-50
2023/11/09 01:13:10;;;;;;;;;;;5.80;58.50;;;0.86;100.00;95125.19;5008913;28;19917;-49
2023/11/09 01:15:37;;;;;;;;;;;5.80;58.40;;;0.84;100.00;95129.81;5011067;28;19959;-47
2023/11/09 01:18:10;;;;;;;;;;;5.80;58.40;;;0.85;100.00;95124.38;5010846;28;20004;-48
2023/11/09 01:20:36;;;;;;;;;;;5.70;58.40;;;0.92;100.00;95119.09;5010690;28;19921;-48
2023/11/09 01:23:04;;;;;;;;;;;5.70;58.50;;;0.97;100.00;95118.41;5011218;28;19917;-49
2023/11/09 01:25:31;;;;;;;;;;;5.80;58.60;;;0.88;100.00;95117.91;4997889;28;19909;-49
2023/11/09 01:27:57;;;;;;;;;;;5.80;58.60;;;0.87;100.00;95124.16;5007129;28;20509;-47
2023/11/09 01:30:25;;;;;;;;;;;5.80;58.50;;;0.85;100.00;95123.59;5009646;28;19917;-48
2023/11/09 01:32:51;;;;;;;;;;;5.80;58.50;;;0.82;100.00;95124.00;5010943;28;20413;-50
2023/11/09 01:35:16;;;;;;;;;;;5.70;58.50;;;0.77;100.00;95118.59;5010497;28;19909;-47
2023/11/09 01:37:42;;;;;;;;;;;5.70;58.50;;;0.76;100.00;95117.00;5010292;28;19916;-49
2023/11/09 01:40:10;;;;;;;;;;;5.70;58.50;;;0.76;100.00;95117.00;5010775;28;20415;-51
2023/11/09 01:42:36;;;;;;;;;;;5.70;58.60;;;0.80;100.00;95116.34;5010420;28;19909;-46
2023/11/09 01:45:05;;;;;;;;;;;5.70;58.60;;;0.81;100.00;95119.75;5011049;28;20416;-51
2023/11/09 01:47:32;;;;;;;;;;;5.70;58.70;;;0.77;100.00;95113.34;5010104;28;19909;-47
2023/11/09 01:50:00;;;;;;;;;;;5.70;58.60;;;0.73;100.00;95105.13;5010363;28;19974;-48
2023/11/09 01:52:27;;;;;;;;;;;5.70;58.60;;;0.77;100.00;95111.53;5011048;28;20000;-48
2023/11/09 01:54:54;;;;;;;;;;;5.70;58.60;;;0.81;100.00;95098.78;5009662;28;20306;-47
2023/11/09 01:57:22;;;;;;;;;;;5.70;58.60;;;0.86;100.00;95097.13;5010971;28;19955;-49
2023/11/09 01:59:52;;;;;;;;;;;5.70;58.70;;;0.91;100.00;95084.19;5009288;28;19917;-50
2023/11/09 02:06:36;;;;;;;;;;;5.80;58.80;;;0.99;99.89;95090.16;5008461;28;20441;-49
2023/11/09 02:09:02;;;;;;;;;;;5.70;58.70;;;0.99;100.00;95084.91;5008067;28;20291;-52
2023/11/09 02:11:28;;;;;;;;;;;5.70;58.70;;;0.96;100.00;95078.28;5006563;28;19920;-52
2023/11/09 02:13:54;;;;;;;;;;;5.80;58.70;;;0.95;100.00;95083.75;5007868;28;20272;-47
2023/11/09 02:16:20;;;;;;;;;;;5.80;58.70;;;0.96;99.96;95075.66;5010296;28;20272;-47
2023/11/09 02:18:46;;;;;;;;;;;5.80;58.70;;;0.99;100.00;95069.97;5009573;28;19916;-48
2023/11/09 02:21:15;;;;;;;;;;;5.80;58.70;;;1.03;99.24;95065.91;4986800;23;19971;-49
2023/11/09 02:23:47;;;;;;;;;;;5.80;58.70;;;1.04;99.80;95066.72;4974576;28;19969;-47
2023/11/09 02:26:13;;;;;;;;;;;5.80;58.70;;;1.03;99.70;95063.28;4971329;28;19917;-47
2023/11/09 02:28:39;;;;;;;;;;;5.80;58.70;;;1.06;99.15;95060.22;4975538;28;19921;-50
2023/11/09 02:31:05;;;;;;;;;;;5.80;58.70;;;1.09;98.77;95056.34;4985012;28;19910;-49
2023/11/09 02:33:31;;;;;;;;;;;5.80;58.70;;;1.05;99.50;95042.88;4995272;28;19978;-52
2023/11/09 02:35:57;;;;;;;;;;;5.80;58.70;;;1.02;99.13;95039.91;4993582;28;19913;-58
2023/11/09 02:38:22;;;;;;;;;;;5.80;58.70;;;1.07;98.42;95026.94;4979671;28;19909;-58
2023/11/09 02:40:48;;;;;;;;;;;5.90;58.70;;;1.08;97.64;95036.41;4994072;28;20434;-57
2023/11/09 02:43:14;;;;;;;;;;;5.90;58.70;;;1.08;98.63;95039.81;4993219;28;20280;-58
2023/11/09 02:45:40;;;;;;;;;;;5.90;58.60;;;1.03;99.85;95031.00;4994508;28;19941;-58
2023/11/09 02:48:06;;;;;;;;;;;5.80;58.60;;;1.02;99.96;95026.78;4993250;28;20013;-58
2023/11/09 02:50:32;;;;;;;;;;;5.90;58.70;;;0.92;99.18;95028.09;4993939;28;20014;-58
2023/11/09 02:52:58;;;;;;;;;;;5.90;58.60;;;0.93;99.56;95021.00;4994724;28;19916;-57
2023/11/09 02:55:24;;;;;;;;;;;5.80;58.50;;;0.92;98.99;95020.22;5000376;28;19913;-57
2023/11/09 02:57:49;;;;;;;;;;;5.80;58.60;;;0.89;99.64;95019.84;4994329;28;20487;-54
2023/11/09 03:00:15;;;;;;;;;;;5.80;58.50;;;0.85;99.32;95016.88;4989240;28;19909;-57
2023/11/09 03:02:41;;;;;;;;;;;5.80;59.10;;;0.81;99.36;95005.19;4994453;28;20371;-57
2023/11/09 03:05:07;;;;;;;;;;;5.80;58.60;;;0.78;100.00;95007.44;5000538;28;19913;-55
2023/11/09 03:07:33;;;;;;;;;;;5.70;58.50;;;0.74;100.00;95001.84;4991167;28;20348;-48
2023/11/09 03:09:59;;;;;;;;;;;5.70;58.50;;;0.70;100.00;94995.44;4992873;28;20011;-50
2023/11/09 03:12:26;;;;;;;;;;;5.70;58.50;;;0.68;100.00;94998.25;4993064;28;19964;-46
2023/11/09 03:14:52;;;;;;;;;;;5.70;58.50;;;0.59;100.00;94996.13;4993660;28;19916;-49
2023/11/09 03:17:20;;;;;;;;;;;5.60;58.50;;;0.59;100.00;94990.91;4993874;28;20291;-47
2023/11/09 03:19:46;;;;;;;;;;;5.60;58.50;;;0.56;100.00;94986.88;4992091;28;19944;-52
2023/11/09 03:22:12;;;;;;;;;;;5.50;58.60;;;0.52;100.00;94982.31;4993632;28;19933;-47
2023/11/09 03:24:40;;;;;;;;;;;5.50;58.50;;;0.48;100.00;94975.91;4992803;28;20365;-49
2023/11/09 03:27:09;;;;;;;;;;;5.50;58.60;;;0.41;100.00;94974.16;4992632;28;19909;-49
2023/11/09 03:29:36;;;;;;;;;;;5.40;58.50;;;0.34;100.00;94970.75;4991986;28;19913;-51
2023/11/09 03:32:03;;;;;;;;;;;5.40;58.60;;;0.31;100.00;94965.16;4973887;28;19955;-52
2023/11/09 03:34:29;;;;;;;;;;;5.30;58.60;;;0.20;100.00;94964.84;4997910;28;20311;-48
2023/11/09 03:36:55;;;;;;;;;;;5.30;58.60;;;0.25;100.00;94969.44;4991786;28;19910;-47
2023/11/09 03:39:21;;;;;;;;;;;5.30;58.70;;;0.27;100.00;94967.41;4993322;28;19916;-49
2023/11/09 03:41:47;;;;;;;;;;;5.30;58.80;;;0.36;100.00;94966.13;4990407;28;19909;-49
2023/11/09 03:44:13;;;;;;;;;;;5.30;58.90;;;0.31;100.00;94962.53;4992895;28;19909;-51
2023/11/09 03:46:39;;;;;;;;;;;5.20;58.90;;;0.34;100.00;94949.78;4992868;28;19916;-49
2023/11/09 03:49:07;;;;;;;;;;;5.20;58.80;;;0.32;100.00;94959.72;4992503;28;19969;-48
2023/11/09 03:51:36;;;;;;;;;;;5.20;58.80;;;0.35;100.00;94961.09;4987145;28;19918;-58
2023/11/09 03:54:03;;;;;;;;;;;5.20;58.80;;;0.34;100.00;94947.19;4992648;28;20346;-56
2023/11/09 03:56:29;;;;;;;;;;;5.30;58.90;;;0.39;100.00;94943.94;4992991;28;19916;-49
2023/11/09 03:58:55;;;;;;;;;;;5.20;58.90;;;0.37;100.00;94940.72;4992798;28;19910;-49
2023/11/09 04:01:20;;;;;;;;;;;5.30;58.90;;;0.39;99.95;94943.94;4990700;28;19910;-51
2023/11/09 04:03:46;;;;;;;;;;;5.20;58.90;;;0.36;100.00;94939.91;4992870;28;19932;-50
2023/11/09 04:06:18;;;;;;;;;;;5.30;59.00;;;0.38;100.00;94943.13;4998970;28;19935;-53
2023/11/09 04:08:45;;;;;;;;;;;5.30;59.00;;;0.40;99.91;94935.84;4993060;28;19983;-53
2023/11/09 04:11:10;;;;;;;;;;;5.30;59.00;;;0.48;99.46;94933.97;4992065;28;19929;-52
2023/11/09 04:13:36;;;;;;;;;;;5.30;59.10;;;0.52;98.95;94935.94;4999388;28;19939;-52
2023/11/09 04:16:03;;;;;;;;;;;5.30;59.00;;;0.47;99.04;94930.56;4994246;28;19916;-49
2023/11/09 04:18:30;;;;;;;;;;;5.30;59.00;;;0.44;99.38;94925.75;4989671;28;19910;-50
2023/11/09 04:20:56;;;;;;;;;;;5.30;59.00;;;0.44;99.67;94934.41;4992332;28;20380;-49
2023/11/09 04:23:21;;;;;;;;;;;5.30;58.90;;;0.43;99.93;94930.16;4975212;28;19916;-49
2023/11/09 04:25:47;;;;;;;;;;;5.30;58.90;;;0.40;99.84;94914.88;4991376;28;20402;-49
2023/11/09 04:28:13;;;;;;;;;;;5.30;59.00;;;0.45;99.59;94932.59;4992149;28;19924;-50
2023/11/09 04:30:38;;;;;;;;;;;5.30;59.00;;;0.46;99.89;94921.88;4990830;28;20372;-49
2023/11/09 04:33:09;;;;;;;;;;;5.30;59.00;;;0.49;99.73;94925.09;4992161;28;19914;-54
2023/11/09 04:35:36;;;;;;;;;;;5.30;59.00;;;0.49;100.00;94930.31;4991473;28;20271;-56
2023/11/09 04:38:02;;;;;;;;;;;5.40;59.00;;;0.41;100.00;94926.97;4992089;28;19916;-53
2023/11/09 04:40:30;;;;;;;;;;;5.30;58.90;;;0.43;99.38;94927.53;4991791;28;19944;-56
2023/11/09 04:42:58;;;;;;;;;;;5.30;58.90;;;0.43;99.99;94919.69;4990994;28;19913;-57
2023/11/09 04:45:25;;;;;;;;;;;5.40;59.00;;;0.40;100.00;94922.72;4992319;28;19909;-58
2023/11/09 04:47:58;;;;;;;;;;;5.30;58.90;;;0.41;100.00;94913.88;4991643;28;19913;-58
2023/11/09 04:50:30;;;;;;;;;;;5.30;58.90;;;0.42;99.96;94912.06;4991079;28;19956;-54
2023/11/09 04:53:29;;;;;;;;;;;5.30;58.90;;;0.39;100.00;94904.63;4992051;28;20372;-58
2023/11/09 04:55:53;;;;;;;;;;;5.30;58.90;;;0.35;100.00;94904.25;4990180;28;19940;-58
2023/11/09 05:06:51;;;;;;;;;;;5.20;59.00;;;0.25;100.00;94896.06;4985011;28;19916;-55
2023/11/09 05:09:19;;;;;;;;;;;5.20;59.00;;;0.22;100.00;94891.31;4991715;28;20019;-56
2023/11/09 05:11:47;;;;;;;;;;;5.20;59.00;;;0.26;100.00;94891.66;4990076;28;19909;-52
2023/11/09 05:14:13;;;;;;;;;;;5.20;59.10;;;0.26;100.00;94881.19;4991473;28;20027;-53
2023/11/09 05:16:39;;;;;;;;;;;5.20;59.10;;;0.31;100.00;94876.88;4991280;28;19910;-53
2023/11/09 05:19:05;;;;;;;;;;;5.20;59.10;;;0.35;100.00;94870.19;4990607;28;19909;-52
2023/11/09 05:21:31;;;;;;;;;;;5.30;59.20;;;0.49;99.53;94883.94;4991117;28;19917;-55
2023/11/09 05:23:57;;;;;;;;;;;5.30;59.20;;;0.59;98.93;94886.06;4988817;28;19914;-55
2023/11/09 05:26:26;;;;;;;;;;;5.30;59.20;;;0.64;98.77;94889.63;4991529;28;20368;-53
2023/11/09 05:28:53;;;;;;;;;;;5.40;59.30;;;0.64;99.21;94884.38;4974511;28;19974;-55
2023/11/09 05:31:23;;;;;;;;;;;5.40;59.20;;;0.67;98.04;94880.53;5003237;28;19944;-53
2023/11/09 05:33:52;;;;;;;;;;;5.50;59.30;;;0.67;98.33;94883.94;5010963;28;19909;-50
2023/11/09 05:36:21;;;;;;;;;;;5.50;59.20;;;0.65;99.24;94885.97;5000637;28;20240;-51
2023/11/09 05:38:48;;;;;;;;;;;5.50;59.10;;;0.64;99.32;94891.44;5010916;28;20379;-54
2023/11/09 05:41:17;;;;;;;;;;;5.50;59.00;;;0.62;99.92;94888.25;5009831;28;19947;-52
2023/11/09 05:43:43;;;;;;;;;;;5.50;59.10;;;0.63;98.97;94890.66;5007469;28;19909;-52
2023/11/09 05:46:09;;;;;;;;;;;5.50;59.00;;;0.62;98.81;94889.03;5010482;28;19909;-53
2023/11/09 05:48:35;;;;;;;;;;;5.50;59.00;;;0.69;98.64;94883.75;5007450;28;19967;-53
2023/11/09 05:51:01;;;;;;;;;;;5.50;59.00;;;0.72;98.17;94898.22;5006307;28;19913;-50
2023/11/09 05:53:27;;;;;;;;;;;5.50;59.10;;;0.78;97.35;94894.72;5000912;28;20469;-54
2023/11/09 05:55:53;;;;;;;;;;;5.60;59.10;;;0.80;97.42;94896.09;5006979;28;19909;-50
2023/11/09 05:58:19;;;;;;;;;;;5.60;59.10;;;0.75;97.69;94898.56;5009849;28;19932;-50
2023/11/09 06:00:45;;;;;;;;;;;5.60;59.00;;;0.71;97.67;94905.28;5006997;28;20373;-52
2023/11/09 06:03:11;;;;;;;;;;;5.60;59.00;;;0.66;98.04;94903.31;5014695;28;19908;-52
2023/11/09 06:05:39;;;;;;;;;;;5.60;59.20;;;0.69;97.23;94902.09;5013415;28;20274;-55
2023/11/09 06:08:08;;;;;;;;;;;5.60;59.00;;;0.75;96.76;94918.75;4999703;28;19916;-55
2023/11/09 06:10:34;;;;;;;;;;;5.60;59.00;;;0.83;96.95;94923.69;5013876;28;19914;-54
2023/11/09 06:13:00;;;;;;;;;;;5.60;59.00;;;0.83;96.72;94921.88;5009727;28;19944;-53
2023/11/09 06:15:26;;;;;;;;;;;5.70;59.00;;;0.78;96.36;94918.31;5014582;28;19909;-52
2023/11/09 06:17:52;;;;;;;;;;;5.70;59.00;;;0.79;96.60;94918.09;5009907;28;20066;-53
2023/11/09 06:20:20;;;;;;;;;;;5.70;59.00;;;0.78;95.99;94913.06;5013697;28;20000;-52
2023/11/09 06:22:46;;;;;;;;;;;5.70;58.90;;;0.71;98.63;94918.38;5014479;28;19920;-52
2023/11/09 06:25:12;;;;;;;;;;;5.80;58.90;;;0.79;96.85;94919.94;4999737;28;19913;-50
2023/11/09 06:27:39;;;;;;;;;;;5.70;58.90;;;0.84;97.10;94920.84;4997548;28;19913;-53
2023/11/09 06:30:07;;;;;;;;;;;5.80;59.00;;;0.84;98.74;94918.22;4995874;28;20394;-53
2023/11/09 06:32:34;;;;;;;;;;;5.80;59.00;;;0.88;98.33;94929.09;4999772;28;20002;-49
2023/11/09 06:35:01;;;;;;;;;;;5.80;58.90;;;0.88;96.95;94934.34;4980082;28;19929;-58
2023/11/09 06:37:27;;;;;;;;;;;5.80;58.90;;;0.91;96.20;94931.28;5008424;28;19959;-56
2023/11/09 06:39:58;;;;;;;;;;;5.80;58.90;;;0.93;96.03;94927.41;5010236;28;19913;-58
2023/11/09 06:42:26;;;;;;;;;;;5.90;58.90;;;1.01;94.90;94931.56;5009139;28;26627;-57
2023/11/09 06:44:54;;;;;;;;;;;5.90;58.90;;;1.06;94.93;94928.25;5013473;28;20290;-51
2023/11/09 06:47:20;;;;;;;;;;;6.00;59.00;;;1.10;95.44;94937.31;5011918;28;19964;-57
2023/11/09 06:49:45;;;;;;;;;;;6.00;58.90;;;1.10;95.03;94934.69;5007798;28;20303;-58
2023/11/09 06:52:11;;;;;;;;;;;6.10;58.90;;;1.14;95.03;94943.72;5013670;28;19915;-53
2023/11/09 06:54:38;;;;;;;;;;;6.10;58.80;;;1.17;95.05;94951.13;5007462;28;20363;-55
2023/11/09 06:57:04;;;;;;;;;;;6.20;58.80;;;1.22;95.27;94945.22;5011906;28;19998;-58
2023/11/09 06:59:30;;;;;;;;;;;6.20;58.80;;;1.27;95.52;94954.03;5004508;28;20367;-56
2023/11/09 07:01:56;;;;;;;;;;;6.30;58.80;;;1.26;95.01;94954.28;5010735;28;19915;-58
2023/11/09 07:04:25;;;;;;;;;;;6.30;58.70;;;1.28;96.93;94954.81;5013484;28;20003;-58
2023/11/09 07:06:51;;;;;;;;;;;6.40;58.70;;;1.27;96.56;94958.47;5011702;28;19940;-55
2023/11/09 07:09:18;;;;;;;;;;;6.40;58.80;;;1.31;95.46;94962.25;5013140;28;19917;-57
2023/11/09 07:11:44;;;;;;;;;;;6.50;58.60;;;1.35;93.64;94966.84;5009982;28;19909;-56
2023/11/09 07:14:11;;;;;;;;;;;6.50;58.60;;;1.44;95.10;94961.28;5008104;28;19932;-58
2023/11/09 07:16:37;;;;;;;;;;;6.60;58.60;;;1.66;91.79;94959.78;5008268;28;20012;-58
2023/11/09 07:19:02;;;;;;;;;;;6.70;58.70;;;1.81;93.40;94970.66;5004503;28;20430;-56
2023/11/09 07:21:28;;;;;;;;;;;6.80;58.70;;;1.92;93.53;94981.44;5002764;28;19917;-58
2023/11/09 07:23:59;;;;;;;;;;;6.90;58.70;;;2.00;91.37;94976.63;5009598;28;19957;-57
2023/11/09 07:26:27;;;;;;;;;;;7.10;58.70;;;2.11;92.36;94976.91;5013476;28;19916;-57
2023/11/09 07:28:53;;;;;;;;;;;7.20;58.60;;;2.18;91.92;94975.75;5012742;28;19913;-57
2023/11/09 07:31:20;;;;;;;;;;;7.30;58.60;;;2.31;91.92;94986.06;5009583;28;20292;-53
2023/11/09 07:33:47;;;;;;;;;;;7.40;58.50;;;2.42;91.46;94984.47;5013276;28;19909;-55
2023/11/09 07:36:13;;;;;;;;;;;7.50;58.40;;;2.52;89.37;94991.81;5009201;28;19959;-57
2023/11/09 07:38:38;;;;;;;;;;;7.60;58.40;;;2.65;91.04;94996.03;5012715;28;20512;-54
2023/11/09 07:41:04;;;;;;;;;;;7.70;58.30;;;2.73;85.15;94995.69;5012735;28;19916;-52
2023/11/09 07:43:31;;;;;;;;;;;7.80;58.30;;;2.89;86.87;94996.81;5009255;28;20002;-55
2023/11/09 07:45:57;;;;;;;;;;;7.90;58.30;;;3.01;87.49;94995.78;5012577;28;19947;-54
2023/11/09 07:48:24;;;;;;;;;;;8.00;58.20;;;3.08;87.83;94987.75;5009559;28;19913;-58
2023/11/09 07:50:50;;;;;;;;;;;8.10;58.20;;;3.17;87.81;94996.09;5009910;28;19909;-48
2023/11/09 07:53:16;;;;;;;;;;;8.30;58.20;;;3.25;88.75;94998.34;5012843;28;19913;-52
2023/11/09 07:55:42;;;;;;;;;;;8.40;58.10;;;3.55;83.49;94998.16;5008496;28;19916;-49
2023/11/09 07:58:08;;;;;;;;;;;8.50;58.10;;;3.90;79.46;94997.22;4999121;28;19909;-49
2023/11/09 08:00:34;;;;;;;;;;;8.60;58.10;;;4.22;79.09;94997.50;4995840;28;20004;-51
2023/11/09 08:03:01;;;;;;;;;;;8.90;58.00;;;4.44;76.15;94994.94;5000610;28;19953;-53
2023/11/09 08:05:29;;;;;;;;;;;9.10;57.90;;;4.82;75.07;94996.03;5002624;28;20268;-51
2023/11/09 08:07:55;;;;;;;;;;;9.30;57.50;;;5.03;75.18;95000.56;5010089;28;19970;-51
2023/11/09 08:10:24;;;;;;;;;;;9.60;57.30;;;5.16;74.41;95009.97;5011558;28;19913;-46
2023/11/09 08:12:52;;;;;;;;;;;9.80;57.00;;;5.28;73.97;95005.38;5010126;28;19909;-47
2023/11/09 08:15:18;;;;;;;;;;;10.00;56.70;;;5.36;73.64;95009.44;5012484;28;19909;-46
2023/11/09 08:17:44;;;;;;;;;;;10.10;56.50;;;5.39;73.51;95013.41;5009823;28;20334;-48
2023/11/09 08:20:15;;;;;;;;;;;10.20;56.20;;;5.42;72.99;95018.22;5010918;28;19931;-49
2023/11/09 08:22:46;;;;;;;;;;;10.30;56.00;;;5.41;72.59;95012.13;5012367;28;19909;-47
2023/11/09 08:25:15;;;;;;;;;;;10.40;55.70;;;5.46;73.39;95006.13;5007759;28;19972;-55
2023/11/09 08:27:42;;;;;;;;;;;10.50;55.40;;;5.53;73.49;95012.81;5012281;28;20005;-47
2023/11/09 08:30:11;;;;;;;;;;;10.60;55.30;;;5.58;72.76;95004.16;5014644;23;20360;-48
2023/11/09 08:32:38;;;;;;;;;;;10.60;55.30;;;5.63;72.90;95009.50;4992363;28;19917;-53
2023/11/09 08:35:10;;;;;;;;;;;10.70;55.10;;;5.66;73.22;95010.84;4992492;28;19979;-52
2023/11/09 08:37:40;;;;;;;;;;;10.80;55.00;;;5.71;74.06;95005.63;4992159;28;20376;-49
2023/11/09 08:40:16;;;;;;;;;;;10.90;55.00;;;5.75;75.66;95007.50;4981910;28;19910;-50
2023/11/09 08:42:49;;;;;;;;;;;11.00;54.90;;;5.80;75.57;95004.16;4972012;28;19956;-49
2023/11/09 08:45:28;;;;;;;;;;;11.10;54.70;;;5.87;76.30;95006.59;4968393;28;19910;-53
2023/11/09 08:47:55;;;;;;;;;;;11.20;54.60;;;5.93;76.87;94995.84;4968528;28;19945;-48
2023/11/09 08:50:21;;;;;;;;;;;11.30;54.50;;;6.02;77.40;94999.63;4972224;28;19914;-53
2023/11/09 08:52:48;;;;;;;;;;;11.40;54.50;;;6.03;77.79;95014.44;4972761;28;19909;-48
2023/11/09 08:55:14;;;;;;;;;;;11.40;54.50;;;6.16;77.71;95015.09;4971672;28;20016;-51
2023/11/09 08:57:41;;;;;;;;;;;11.50;54.40;;;6.26;78.24;95002.75;4972482;28;19953;-50
2023/11/09 09:00:12;;;;;;;;;;;11.60;54.50;;;6.31;78.49;94993.28;4970337;28;19909;-50
2023/11/09 09:02:50;;;;;;;;;;;11.70;54.50;;;6.33;78.26;94994.63;4972753;28;20359;-52
2023/11/09 09:05:23;;;;;;;;;;;11.80;54.40;;;6.38;78.08;94992.00;4956553;28;19910;-50
2023/11/09 09:08:00;;;;;;;;;;;11.80;54.30;;;6.50;78.19;94986.56;4971397;28;19913;-51
2023/11/09 09:10:27;;;;;;;;;;;11.90;54.30;;;6.58;77.99;94974.69;4965173;28;19918;-48
2023/11/09 09:12:56;;;;;;;;;;;12.00;54.30;;;6.69;78.19;94976.38;4972613;28;19964;-48
2023/11/09 09:15:23;;;;;;;;;;;12.10;54.20;;;6.78;77.91;94979.34;4968191;28;19978;-48
2023/11/09 09:17:50;;;;;;;;;;;12.20;54.20;;;6.86;77.91;94981.50;4967217;28;19910;-47
2023/11/09 09:20:20;;;;;;;;;;;12.30;54.20;;;6.96;77.59;94984.22;4965607;28;20396;-47
2023/11/09 09:22:49;;;;;;;;;;;12.40;54.20;;;7.10;77.20;94977.41;4971642;28;19909;-47
2023/11/09 09:25:16;;;;;;;;;;;12.50;54.10;;;7.21;76.97;94967.69;4963010;28;20004;-47
2023/11/09 09:27:46;;;;;;;;;;;12.70;54.00;;;7.35;77.12;94955.53;4972270;28;20372;-48
2023/11/09 09:30:17;;;;;;;;;;;12.90;54.00;;;7.47;75.55;94963.28;4957333;28;19949;-48
2023/11/09 09:32:48;;;;;;;;;;;13.10;54.00;;;7.64;74.10;94955.09;4964907;28;20004;-50
2023/11/09 09:35:15;;;;;;;;;;;13.30;53.80;;;7.74;73.77;94956.97;4969118;28;19910;-49
2023/11/09 09:37:45;;;;;;;;;;;13.40;53.60;;;7.86;73.20;94952.25;4966473;28;19968;-47
2023/11/09 09:40:19;;;;;;;;;;;13.60;53.50;;;7.90;72.56;94974.53;4962673;28;19996;-49
2023/11/09 09:42:49;;;;;;;;;;;13.70;53.40;;;7.96;71.58;94948.81;4963658;28;19916;-52
2023/11/09 09:45:18;;;;;;;;;;;13.70;53.30;;;8.03;71.71;94941.41;4963683;28;20277;-48
2023/11/09 09:47:53;;;;;;;;;;;13.80;53.30;;;8.05;72.64;94968.44;4965094;28;20016;-47
2023/11/09 09:50:29;;;;;;;;;;;13.80;53.20;;;8.06;72.49;94968.19;4970886;28;19920;-48
2023/11/09 09:52:57;;;;;;;;;;;13.80;53.10;;;8.12;71.95;94969.00;4971826;28;20265;-49
2023/11/09 09:55:27;;;;;;;;;;;13.80;53.10;;;8.16;72.41;94975.38;4970730;28;20378;-48
2023/11/09 09:57:55;;;;;;;;;;;13.80;53.00;;;8.26;72.32;94982.53;4971278;28;19910;-50
2023/11/09 10:00:23;;;;;;;;;;;13.90;53.00;;;8.30;72.51;94976.47;4970284;28;20349;-48
2023/11/09 10:02:54;;;;;;;;;;;14.00;53.00;;;8.29;71.53;94982.03;4971711;28;19909;-50
2023/11/09 10:05:27;;;;;;;;;;;14.10;53.00;;;8.38;71.99;94977.81;4964411;28;19953;-48
2023/11/09 10:08:12;;;;;;;;;;;14.20;52.80;;;8.53;71.47;94969.06;4961596;28;20000;-49
2023/11/09 10:10:49;;;;;;;;;;;14.50;52.90;;;8.73;69.95;94966.38;4971340;28;20621;-48
2023/11/09 10:13:18;;;;;;;;;;;14.80;52.60;;;9.00;68.93;94968.72;4971275;28;19913;-48
2023/11/09 10:15:56;;;;;;;;;;;15.30;52.50;;;9.37;67.44;94962.25;4971733;28;19917;-48
2023/11/09 10:18:27;;;;;;;;;;;15.80;52.20;;;9.91;66.05;94958.00;4965335;28;19910;-50
2023/11/09 10:20:58;;;;;;;;;;;16.40;52.00;;;10.30;62.42;94959.91;4968956;28;20029;-48
2023/11/09 10:23:26;;;;;;;;;;;16.80;51.90;;;10.55;60.94;94953.59;4971628;28;19910;-48
2023/11/09 10:25:52;;;;;;;;;;;17.10;51.60;;;10.71;60.62;94957.72;4953001;28;19913;-50
2023/11/09 10:28:20;;;;;;;;;;;17.30;51.40;;;10.83;59.33;94944.81;4972068;28;19917;-51
2023/11/09 10:30:48;;;;;;;;;;;17.40;51.00;;;10.85;58.30;94950.66;4969954;28;19917;-46
2023/11/09 10:33:17;;;;;;;;;;;17.50;50.80;;;10.84;57.74;94961.59;4971287;28;19921;-47
2023/11/09 10:35:47;;;;;;;;;;;17.40;50.60;;;10.76;56.67;94955.00;4970854;28;20419;-50
2023/11/09 10:38:20;;;;;;;;;;;17.30;50.40;;;10.67;56.48;94955.91;4971409;28;19910;-50
2023/11/09 10:40:48;;;;;;;;;;;17.20;50.00;;;10.54;56.82;94968.78;4971285;28;19910;-46
2023/11/09 10:43:15;;;;;;;;;;;17.00;49.60;;;10.64;58.58;94965.25;4970191;28;20012;-48
2023/11/09 10:45:43;;;;;;;;;;;17.00;49.60;;;10.38;57.34;94962.78;4969138;28;20047;-49
2023/11/09 10:48:18;;;;;;;;;;;16.90;49.50;;;10.45;57.77;94965.13;4971831;28;19957;-50
2023/11/09 10:50:47;;;;;;;;;;;16.70;49.40;;;10.32;59.41;94955.91;4974440;28;19913;-46
2023/11/09 10:53:19;;;;;;;;;;;16.60;49.40;;;10.27;58.38;94955.13;4975011;28;19955;-46
2023/11/09 10:55:53;;;;;;;;;;;16.40;49.50;;;10.20;58.84;94960.75;4973903;28;19917;-46
2023/11/09 10:58:20;;;;;;;;;;;16.20;49.50;;;10.09;59.75;94953.91;4973098;28;20030;-49
2023/11/09 11:00:59;;;;;;;;;;;16.00;49.60;;;10.02;61.16;94954.19;4966309;28;19917;-46
2023/11/09 11:03:33;;;;;;;;;;;15.90;49.70;;;9.88;61.16;94953.25;4968184;28;20012;-48
2023/11/09 11:06:16;;;;;;;;;;;15.70;49.80;;;9.81;61.61;94948.22;4956928;28;20372;-50
2023/11/09 11:08:44;;;;;;;;;;;15.70;49.80;;;9.75;62.90;94944.00;4974123;28;19914;-48
2023/11/09 11:11:28;;;;;;;;;;;15.50;49.90;;;9.66;62.09;94930.47;4974429;28;19953;-51
2023/11/09 11:14:07;;;;;;;;;;;15.50;49.90;;;9.74;62.81;94923.78;4973673;28;19909;-50
2023/11/09 11:16:41;;;;;;;;;;;15.40;49.90;;;9.78;62.37;94919.53;4974585;28;20016;-49
2023/11/09 11:19:41;;;;;;;;;;;15.40;50.10;;;9.81;62.08;94915.50;4972748;28;19916;-48
2023/11/09 11:23:13;;;;;;;;;;;15.30;50.10;;;9.62;62.05;94904.69;4974750;28;19916;-50
2023/11/09 11:25:58;;;;;;;;;;;15.30;50.10;;;9.58;63.56;94901.78;4973458;28;19914;-49
2023/11/09 11:28:27;;;;;;;;;;;15.20;50.10;;;9.61;63.70;94887.16;4974184;28;19909;-49
2023/11/09 11:31:03;;;;;;;;;;;15.20;50.10;;;9.56;63.53;94888.00;4972747;28;20376;-48
2023/11/09 11:33:29;;;;;;;;;;;15.20;50.10;;;9.50;64.29;94883.78;4973860;28;19916;-49
2023/11/09 11:36:00;;;;;;;;;;;15.20;49.90;;;9.48;65.20;94876.06;4973113;28;19914;-48
2023/11/09 11:38:33;;;;;;;;;;;15.30;50.50;;;9.59;66.40;94876.00;4973889;28;20277;-50
2023/11/09 11:41:05;;;;;;;;;;;15.30;49.90;;;9.58;65.43;94877.06;4973932;28;19910;-48
2023/11/09 11:43:36;;;;;;;;;;;15.30;49.80;;;9.59;65.60;94879.47;4955735;28;19921;-50
2023/11/09 11:46:11;;;;;;;;;;;15.20;49.90;;;9.54;65.63;94881.38;4973855;28;19910;-49